Date,TemperatureHighF,TemperatureAvgF,TemperatureLowF,DewpointHighF,DewpointAvgF,DewpointLowF,HumidityHigh,HumidityAvg,HumidityLow,PressureMaxIn,PressureMinIn,WindSpeedMaxMPH,WindSpeedAvgMPH,GustSpeedMaxMPH,PrecipitationSumIn
2013-1-1,32.7,25.3,16.9,31.7,21.9,12.9,96,87,78,30.30,30.10,17,6,17,0.00
2013-1-2,30.0,19.6,10.2,16.5,12.6,7.5,91,75,48,30.35,30.26,6,1,6,0.00
2013-1-3,38.7,26.5,17.4,28.0,20.8,12.0,88,79,62,30.44,30.27,9,1,9,0.00
2013-1-4,38.1,29.3,21.1,28.3,23.8,19.3,93,80,65,30.50,30.37,9,1,9,0.00
2013-1-5,40.6,33.9,26.3,33.4,28.6,23.0,90,81,71,30.38,30.17,14,4,14,0.00
2013-1-6,38.2,32.2,22.2,33.3,27.1,20.4,94,82,69,30.43,30.11,21,4,21,0.00
2013-1-7,43.4,31.2,21.7,29.0,24.7,19.7,93,78,54,30.48,30.24,10,1,10,0.00
2013-1-8,51.4,41.5,26.6,36.7,32.4,23.8,90,71,51,30.29,30.18,9,2,10,0.00
2013-1-9,55.7,47.2,42.2,46.8,41.0,34.1,95,80,57,30.49,30.22,14,2,14,0.00
2013-1-10,62.0,48.2,42.3,60.6,44.2,33.6,97,87,63,30.49,29.83,23,7,23,0.26
2013-1-11,62.0,56.2,52.1,59.9,50.8,47.6,95,82,69,29.94,29.82,23,8,23,0.01
2013-1-12,62.2,51.9,34.5,57.4,49.3,32.8,96,91,81,29.98,29.74,32,6,32,2.41
2013-1-13,34.5,28.3,22.2,32.9,25.2,15.9,96,88,77,30.38,29.86,27,10,27,0.19
2013-1-14,27.1,22.2,19.0,20.1,17.0,14.0,90,80,73,30.53,30.38,11,3,16,0.00
2013-1-15,29.0,23.8,18.9,23.0,19.1,16.0,90,82,73,30.43,30.23,12,2,12,0.00
2013-1-16,38.2,31.1,23.1,26.6,24.4,21.0,92,76,55,30.19,30.08,11,3,13,0.00
2013-1-17,38.9,33.9,26.1,34.2,27.5,22.4,87,77,66,30.53,30.16,22,6,22,0.00
2013-1-18,46.1,34.3,22.9,32.1,27.0,20.6,94,76,52,30.55,30.21,21,6,21,0.00
2013-1-19,55.7,45.3,37.4,40.2,35.4,30.4,83,69,53,30.24,29.98,23,9,26,0.00
2013-1-20,42.8,32.7,26.0,35.9,21.8,14.6,83,64,47,30.36,30.11,18,5,20,0.00
2013-1-21,27.0,22.4,16.1,18.9,9.2,-1.6,79,57,37,30.42,30.28,26,9,26,0.00
2013-1-22,17.9,16.0,13.3,12.1,5.6,-1.8,88,64,46,30.52,30.42,12,3,14,0.00
2013-1-23,41.8,27.3,13.3,25.6,17.9,10.0,88,69,46,30.43,30.19,15,2,21,0.00
2013-1-24,30.1,23.7,17.0,21.2,10.1,0.5,74,56,39,30.64,30.31,23,6,23,0.00
2013-1-25,41.3,31.7,26.6,27.3,18.4,5.9,79,59,39,30.30,30.15,11,2,14,0.00
2013-1-26,39.5,31.4,25.3,24.0,19.4,15.0,80,62,42,30.43,30.25,9,2,9,0.00
2013-1-27,48.4,36.0,27.7,45.5,32.4,20.1,96,87,71,30.37,30.05,17,4,17,0.29
2013-1-28,61.9,56.7,47.3,59.5,54.4,44.9,95,92,89,30.06,29.95,18,7,18,0.00
2013-1-29,68.2,62.8,52.9,61.1,58.4,51.9,97,86,70,29.95,29.37,37,13,50,0.84
2013-1-30,53.4,42.3,29.4,52.1,38.5,20.3,97,87,68,29.92,29.40,35,9,35,0.23
2013-1-31,35.6,27.4,14.9,29.1,19.0,4.3,90,70,60,30.38,29.92,33,9,33,0.00
2013-2-1,26.3,18.6,10.2,15.7,7.3,1.3,72,61,47,30.56,30.33,21,5,21,0.00
2013-2-2,42.3,32.6,25.5,28.2,22.8,15.1,86,67,51,30.33,30.09,16,6,16,0.00
2013-2-3,33.2,28.2,19.8,28.5,22.3,14.2,96,79,54,30.21,30.03,20,2,20,0.01
2013-2-4,49.8,36.6,25.0,42.6,30.1,17.2,91,77,64,30.10,29.83,19,5,19,0.04
2013-2-5,56.2,39.0,27.2,41.1,32.2,25.6,95,78,51,30.15,29.92,14,4,14,0.00
2013-2-6,50.2,39.1,27.1,34.5,31.4,25.5,95,75,50,30.29,30.10,11,2,11,0.00
2013-2-7,64.7,47.0,34.3,50.1,39.6,30.0,94,77,54,30.11,29.84,27,5,27,0.07
2013-2-8,42.0,35.7,31.9,39.1,31.1,26.1,91,83,76,30.42,30.01,23,9,23,0.00
2013-2-9,45.2,37.4,31.2,35.3,29.7,25.5,82,74,59,30.41,30.07,14,3,14,0.04
2013-2-10,54.7,48.0,39.7,52.2,44.1,35.3,94,86,59,30.10,29.65,24,6,24,0.47
2013-2-11,51.4,43.3,35.4,36.7,30.3,26.0,73,60,42,30.17,29.79,24,6,24,0.00
2013-2-12,46.1,38.7,29.3,34.9,29.8,24.9,87,71,57,30.20,29.94,8,1,8,0.00
2013-2-13,51.8,41.7,35.2,37.9,34.3,29.4,93,77,47,29.95,29.84,14,4,14,0.05
2013-2-14,56.0,44.2,34.0,39.5,34.9,31.6,92,72,44,30.07,29.87,16,4,17,0.00
2013-2-15,41.5,35.2,27.2,34.6,24.8,15.2,85,67,41,30.26,30.06,23,6,23,0.00
2013-2-16,35.3,27.8,23.3,23.6,17.1,11.4,85,65,38,30.28,30.21,19,5,19,0.00
2013-2-17,47.4,33.3,18.6,26.1,20.6,14.4,90,62,37,30.26,30.02,14,2,14,0.00
2013-2-18,55.3,46.0,36.8,47.4,39.8,24.1,94,79,59,30.02,29.64,36,10,36,0.50
2013-2-19,37.9,31.7,25.9,30.4,20.5,13.3,82,64,41,30.32,29.88,25,9,27,0.00
2013-2-20,26.6,23.5,20.5,17.4,14.5,11.0,82,68,59,30.44,30.31,17,4,17,0.00
2013-2-21,33.0,26.8,20.7,31.7,22.7,15.7,95,85,73,30.36,29.85,27,6,27,0.00
2013-2-22,38.2,32.9,23.8,34.1,29.5,20.9,96,88,72,30.10,29.84,22,4,22,0.28
2013-2-23,35.1,27.3,20.2,24.3,21.4,17.7,91,79,60,30.10,30.02,10,1,10,0.00
2013-2-24,47.2,33.7,18.9,31.1,25.2,16.8,94,73,46,30.18,30.06,11,2,11,0.00
2013-2-25,49.3,40.5,32.1,34.1,30.4,27.1,82,68,51,30.10,29.60,32,10,32,0.02
2013-2-26,50.6,41.7,36.1,43.8,38.2,31.4,94,88,66,29.66,29.36,26,9,26,0.57
2013-2-27,37.4,34.8,32.1,33.9,31.1,28.3,93,86,78,29.90,29.66,20,7,20,0.03
2013-2-28,35.7,33.5,32.0,31.9,30.1,28.3,93,88,84,30.12,29.89,16,5,16,0.00
2013-3-1,36.1,32.2,30.1,33.6,29.9,26.8,94,91,85,30.18,30.07,20,7,20,0.02
2013-3-2,32.5,29.5,26.1,27.0,23.5,19.3,88,79,60,30.25,30.17,21,9,21,0.00
2013-3-3,38.4,30.9,21.5,24.4,21.2,18.5,91,68,47,30.24,30.10,8,1,8,0.00
2013-3-4,50.9,42.6,34.4,36.0,30.2,23.2,77,62,43,30.12,29.80,18,5,18,0.00
2013-3-5,44.8,36.6,32.0,37.6,31.2,23.6,94,81,66,30.08,29.78,33,6,33,0.02
2013-3-6,37.5,33.4,28.8,29.1,26.6,24.5,87,76,68,30.37,30.08,31,9,31,0.04
2013-3-7,43.0,33.6,24.2,31.4,26.9,22.2,93,77,59,30.46,30.36,11,2,11,0.00
2013-3-8,52.1,40.5,28.4,34.4,29.7,25.7,90,67,44,30.48,30.24,18,4,18,0.00
2013-3-9,65.9,51.6,41.4,39.6,34.9,30.3,69,54,36,30.25,29.87,18,4,18,0.00
2013-3-10,63.9,56.2,49.0,52.2,46.5,36.4,95,72,43,29.88,29.67,29,6,29,0.40
2013-3-11,50.2,39.0,35.3,48.8,35.1,29.3,95,86,78,30.01,29.69,19,6,19,0.00
2013-3-12,50.7,38.1,29.4,32.2,27.7,21.5,90,68,39,30.21,30.01,23,5,23,0.00
2013-3-13,39.9,33.3,27.8,26.5,22.1,17.4,82,64,48,30.45,30.20,26,6,26,0.00
2013-3-14,45.6,34.6,23.7,32.0,26.3,20.4,91,73,52,30.44,30.15,17,3,17,0.00
2013-3-15,69.9,51.6,30.8,53.1,40.5,27.9,90,68,44,30.15,29.69,19,2,21,0.00
2013-3-16,64.3,49.9,38.3,51.2,42.4,34.2,88,76,59,30.04,29.67,25,7,25,0.00
2013-3-17,38.2,35.7,32.3,36.3,33.7,30.3,95,93,87,30.11,29.78,24,7,24,2.88
2013-3-18,47.4,41.2,37.5,40.3,37.6,28.9,97,87,63,30.01,29.67,31,4,31,0.23
2013-3-19,46.9,38.1,29.3,30.1,24.0,16.4,85,58,30,30.24,30.01,17,4,17,0.00
2013-3-20,35.1,31.8,25.4,28.4,20.9,14.7,87,65,46,30.27,30.14,28,7,28,0.00
2013-3-21,36.7,28.8,22.0,21.9,17.5,13.6,82,63,46,30.16,30.03,12,3,12,0.00
2013-3-22,42.0,35.6,31.0,25.0,22.6,20.0,72,59,45,30.09,30.02,13,3,13,0.00
2013-3-23,54.8,45.4,36.8,34.4,29.0,22.9,67,53,41,30.06,29.81,18,5,18,0.00
2013-3-24,46.3,35.0,31.6,35.5,32.5,30.6,96,91,62,29.83,29.49,23,7,23,0.34
2013-3-25,37.1,32.4,30.2,32.4,29.7,27.6,96,90,77,30.20,29.77,22,6,22,0.17
2013-3-26,42.1,35.0,29.3,31.2,27.2,24.1,86,74,54,30.38,30.19,16,5,16,0.00
2013-3-27,48.6,37.0,25.5,31.8,27.0,22.9,92,69,45,30.43,30.33,9,1,9,0.00
2013-3-28,58.2,45.5,34.4,38.5,32.0,26.5,75,60,43,30.41,30.27,14,3,14,0.00
2013-3-29,58.7,49.7,43.0,47.4,42.9,35.6,93,78,62,30.30,30.20,11,3,11,0.06
2013-3-30,58.9,46.2,35.5,46.8,42.6,34.3,97,88,60,30.23,29.94,17,2,17,0.14
2013-3-31,66.5,54.8,47.7,51.4,46.8,41.0,97,77,43,29.94,29.86,12,3,12,0.00
2013-4-1,52.9,43.2,35.4,43.2,29.9,22.3,74,60,40,30.23,29.92,19,7,19,0.00
2013-4-2,47.2,38.0,29.2,31.1,22.5,13.1,81,56,28,30.37,30.23,15,2,15,0.00
2013-4-3,52.4,42.6,31.6,28.7,23.6,19.2,82,49,30,30.41,30.26,19,4,19,0.00
2013-4-4,60.7,47.9,35.4,32.4,25.6,21.8,60,43,26,30.26,30.03,14,4,14,0.00
2013-4-5,65.0,51.6,38.0,42.4,33.6,26.1,73,52,25,30.17,30.06,15,2,16,0.00
2013-4-6,72.7,60.9,49.5,46.5,39.5,34.4,61,46,31,30.09,29.81,31,9,31,0.00
2013-4-7,77.5,65.5,56.3,60.0,52.4,45.9,88,64,44,29.94,29.83,25,6,25,1.05
2013-4-8,75.1,66.8,60.0,61.6,57.1,53.1,81,71,57,29.91,29.79,23,8,24,0.00
2013-4-9,80.5,71.1,63.0,64.4,60.8,56.3,81,70,52,29.94,29.83,32,8,32,0.00
2013-4-10,82.2,73.7,62.0,69.1,65.7,60.3,96,76,58,29.85,29.64,33,9,33,1.01
2013-4-11,65.1,51.4,40.7,63.0,47.7,32.4,96,87,70,29.78,29.58,18,5,18,0.20
2013-4-12,51.2,42.9,36.5,37.2,33.6,30.8,87,70,51,30.05,29.75,21,5,21,0.00
2013-4-13,62.9,49.2,34.1,40.5,36.2,30.6,89,63,38,30.10,29.95,15,3,15,0.00
2013-4-14,77.5,62.8,49.6,54.5,46.2,39.9,72,56,35,29.96,29.70,25,6,25,0.00
2013-4-15,77.2,65.6,58.3,63.5,57.0,49.6,85,74,58,29.92,29.78,18,3,18,0.00
2013-4-16,65.0,54.5,50.3,59.2,51.9,47.6,95,91,81,30.12,29.85,29,4,29,0.04
2013-4-17,84.1,67.1,51.5,71.1,60.8,50.1,98,82,54,30.12,29.76,26,5,26,0.00
2013-4-18,75.4,65.4,43.3,67.2,59.7,36.3,95,82,71,29.76,29.59,34,13,34,2.05
2013-4-19,52.2,43.5,39.2,37.3,31.3,27.0,79,63,41,30.09,29.73,22,7,22,0.00
2013-4-20,55.7,45.5,33.8,35.3,31.3,28.7,84,59,38,30.37,30.09,11,2,15,0.00
2013-4-21,62.7,50.8,39.7,39.4,34.7,31.6,73,55,34,30.45,30.29,17,5,17,0.00
2013-4-22,73.8,59.6,42.8,49.0,41.8,34.9,76,53,34,30.30,30.03,15,3,15,0.00
2013-4-23,66.3,57.0,42.5,60.8,50.7,40.6,94,80,60,30.05,29.80,26,4,26,0.39
2013-4-24,52.1,44.0,39.8,40.8,36.7,31.0,94,77,47,30.28,29.94,23,6,23,0.90
2013-4-25,61.7,50.1,36.5,41.9,36.3,32.8,92,62,35,30.37,30.27,17,3,17,0.00
2013-4-26,59.1,52.3,46.7,48.8,43.1,36.4,90,71,60,30.42,30.26,18,2,18,0.00
2013-4-27,56.6,53.2,49.7,54.9,51.4,47.9,97,94,86,30.33,29.91,19,3,19,0.18
2013-4-28,59.5,55.2,51.2,54.6,52.8,49.5,97,92,81,29.96,29.87,13,3,13,0.02
2013-4-29,75.8,61.8,47.0,60.9,55.0,45.8,98,80,56,29.99,29.85,18,3,18,0.01
2013-4-30,84.5,71.1,58.5,62.1,58.0,54.8,88,66,39,29.97,29.85,15,3,15,0.00
2013-5-1,84.2,72.3,56.2,64.5,58.3,52.4,88,63,41,30.09,29.97,13,1,13,0.00
2013-5-2,80.9,66.9,52.7,65.3,59.0,50.5,96,78,45,30.13,30.01,18,3,18,0.07
2013-5-3,52.7,48.3,42.5,50.9,46.8,40.9,96,95,93,30.07,29.78,12,4,12,1.08
2013-5-4,50.9,45.5,41.9,45.4,42.8,40.0,96,90,78,30.01,29.87,12,2,12,0.24
2013-5-5,59.4,53.0,46.6,56.5,51.3,44.8,97,94,86,30.00,29.87,12,2,12,0.24
2013-5-6,65.0,58.8,53.1,59.3,55.2,51.2,97,88,76,29.96,29.87,16,2,16,0.02
2013-5-7,76.2,64.3,54.5,60.4,56.8,53.3,97,78,49,30.03,29.95,14,2,14,0.00
2013-5-8,82.0,68.9,53.4,62.8,55.3,48.5,96,66,32,30.04,29.97,9,1,9,0.00
2013-5-9,80.8,70.6,64.0,65.9,61.0,55.4,93,73,45,29.99,29.82,26,5,26,0.29
2013-5-10,72.7,64.7,56.7,63.7,59.3,51.6,93,83,67,29.99,29.83,22,5,22,0.06
2013-5-11,71.0,59.3,50.5,56.4,48.0,36.6,90,68,37,30.14,29.96,27,7,27,0.00
2013-5-12,61.7,51.8,41.1,42.2,35.0,27.6,90,56,32,30.23,30.14,19,4,19,0.00
2013-5-13,72.5,57.3,38.5,44.2,38.3,28.5,94,55,25,30.25,30.08,9,1,9,0.00
2013-5-14,90.3,72.3,54.1,65.8,55.7,43.2,73,57,37,30.08,29.82,18,5,18,0.00
2013-5-15,87.1,76.8,67.1,65.4,61.0,56.6,76,59,43,29.96,29.84,19,6,20,0.00
2013-5-16,81.8,70.8,64.1,68.2,63.6,58.1,95,79,46,29.97,29.85,15,2,15,0.34
2013-5-17,77.2,69.8,64.9,67.2,64.1,61.7,92,82,67,29.98,29.91,11,1,11,0.00
2013-5-18,81.5,71.8,61.9,67.8,64.7,60.4,96,79,59,30.01,29.90,10,2,10,0.00
2013-5-19,90.9,78.1,67.8,75.4,69.8,64.1,89,76,56,29.91,29.76,14,3,14,0.00
2013-5-20,86.4,77.6,69.2,72.1,68.0,61.4,86,72,60,29.92,29.73,35,5,35,0.00
2013-5-21,78.1,69.6,63.8,68.3,64.8,61.8,96,85,67,29.91,29.72,19,5,35,1.07
2013-5-22,77.0,69.3,63.4,65.0,61.6,56.9,94,77,55,29.86,29.70,16,5,16,0.00
2013-5-23,66.5,61.3,53.8,59.0,55.3,50.0,89,81,66,30.23,29.86,23,3,23,0.00
2013-5-24,71.0,56.8,43.1,50.3,44.0,37.8,88,65,37,30.40,30.22,15,2,15,0.00
2013-5-25,73.3,62.3,47.5,56.0,50.1,44.6,93,67,44,30.37,30.14,13,2,13,0.00
2013-5-26,83.2,69.6,57.0,65.9,57.9,49.1,80,67,50,30.21,30.04,15,3,15,0.00
2013-5-27,84.5,72.2,64.2,67.9,62.9,58.5,95,74,46,30.04,29.82,24,5,24,0.55
2013-5-28,86.5,76.0,65.4,70.7,66.2,62.6,94,72,53,29.95,29.83,28,6,28,0.00
2013-5-29,87.5,78.3,67.7,70.3,65.3,61.3,80,65,48,29.99,29.87,21,5,21,0.00
2013-5-30,85.0,75.9,66.8,74.2,68.7,64.4,95,79,60,29.94,29.83,29,4,29,0.98
2013-5-31,79.5,72.1,64.0,72.5,68.4,62.1,97,88,78,29.97,29.78,15,3,15,1.93
2013-6-1,73.8,67.3,64.1,67.6,64.6,61.4,97,91,78,29.92,29.75,34,5,40,1.86
2013-6-2,69.8,64.5,58.8,62.0,59.7,56.8,94,85,71,30.01,29.87,14,3,14,0.00
2013-6-3,69.8,62.5,57.0,57.3,54.4,50.3,95,76,53,30.09,29.99,13,2,13,0.00
2013-6-4,76.8,65.5,52.0,62.5,56.4,50.0,95,74,51,30.10,29.99,11,2,11,0.00
2013-6-5,83.3,72.2,62.0,67.5,62.1,58.8,91,72,48,30.01,29.82,11,1,11,0.00
2013-6-6,81.3,72.6,67.0,66.0,63.5,59.4,87,74,50,29.84,29.78,20,5,20,0.00
2013-6-7,77.8,68.6,61.8,62.2,60.2,58.5,91,75,54,29.89,29.81,17,5,17,0.00
2013-6-8,81.8,70.2,57.3,64.4,58.1,53.1,96,69,39,29.98,29.88,13,2,13,0.00
2013-6-9,81.7,69.9,63.2,66.4,61.9,57.8,97,77,50,29.97,29.81,17,1,17,0.52
2013-6-10,79.8,70.1,62.2,67.3,64.0,61.3,98,82,61,29.92,29.79,12,2,12,0.12
2013-6-11,92.4,78.2,60.7,76.9,69.5,59.8,97,76,54,29.99,29.86,15,3,16,0.00
2013-6-12,93.1,84.6,74.8,76.9,74.4,70.8,90,72,56,29.97,29.73,28,6,28,0.00
2013-6-13,84.9,77.4,69.0,73.2,65.7,59.5,83,68,44,29.96,29.73,23,5,23,0.00
2013-6-14,84.3,72.8,60.4,65.2,59.4,54.6,89,65,42,30.09,29.94,15,2,15,0.00
2013-6-15,89.0,77.1,64.7,68.9,64.8,60.3,90,68,45,30.09,29.94,18,3,18,0.00
2013-6-16,85.0,75.1,69.1,72.4,69.0,66.0,92,82,60,30.03,29.92,13,1,14,0.02
2013-6-17,88.2,74.2,65.4,74.7,68.8,63.2,96,84,56,29.98,29.86,24,2,24,0.59
2013-6-18,88.8,75.7,63.0,70.4,65.3,61.2,97,73,42,29.95,29.87,11,2,11,0.00
2013-6-19,87.8,75.6,64.5,69.3,65.2,61.1,96,72,44,30.05,29.94,11,2,11,0.00
2013-6-20,91.7,80.2,67.5,71.0,67.5,62.7,93,67,40,30.12,30.04,10,1,10,0.00
2013-6-21,91.8,82.4,70.9,72.0,69.5,65.7,89,67,44,30.12,30.01,19,4,19,0.00
2013-6-22,91.0,77.3,67.4,73.9,69.6,65.1,95,79,50,30.10,30.00,24,4,24,0.41
2013-6-23,82.4,73.5,66.6,74.3,68.9,65.1,96,86,66,30.11,29.98,20,2,20,0.29
2013-6-24,91.2,78.1,66.7,77.5,71.6,65.5,96,82,57,30.10,29.96,15,2,15,0.00
2013-6-25,92.7,83.1,74.0,76.4,73.6,71.0,92,74,54,29.99,29.80,19,5,19,0.00
2013-6-26,91.8,79.5,73.5,80.0,73.6,70.2,94,82,64,29.89,29.68,24,5,24,0.43
2013-6-27,93.0,82.1,72.4,76.5,71.5,65.7,97,73,44,29.85,29.75,17,4,17,0.00
2013-6-28,89.5,80.5,72.0,72.8,66.2,54.9,91,64,34,29.83,29.67,23,4,23,0.00
2013-6-29,81.6,72.6,65.1,67.8,63.1,60.1,94,73,53,29.70,29.61,21,4,21,0.23
2013-6-30,76.5,68.0,64.0,68.0,64.4,62.4,96,89,67,29.86,29.69,15,4,15,0.16
2013-7-1,69.9,66.4,62.1,66.9,63.4,60.2,96,90,81,29.93,29.84,15,2,15,0.68
2013-7-2,66.5,64.8,63.7,64.7,63.5,62.3,97,95,92,30.02,29.88,16,2,16,1.51
2013-7-3,81.3,69.9,62.9,65.5,62.1,58.0,97,79,47,30.10,30.00,7,1,8,0.01
2013-7-4,85.3,73.0,59.6,68.5,63.7,58.1,96,75,45,30.10,29.99,13,2,13,0.00
2013-7-5,82.4,73.7,65.3,69.8,67.2,64.2,97,81,61,30.08,30.01,11,1,11,0.00
2013-7-6,88.8,75.7,64.3,72.9,68.2,59.6,96,79,53,30.09,29.96,16,2,19,0.75
2013-7-7,89.7,76.9,62.8,74.6,68.6,61.2,96,77,52,30.08,29.99,14,2,14,0.00
2013-7-8,90.3,81.4,71.4,76.0,72.5,68.5,91,75,55,30.11,30.01,14,3,14,0.00
2013-7-9,93.3,84.4,76.1,78.4,75.4,72.4,89,75,56,30.05,29.93,11,3,15,0.00
2013-7-10,86.8,79.9,74.7,76.5,74.0,70.5,95,83,64,29.97,29.87,14,2,14,0.04
2013-7-11,82.5,75.3,67.9,73.3,64.0,59.1,95,70,48,30.04,29.93,15,3,16,0.00
2013-7-12,83.4,73.4,62.5,66.0,60.6,56.3,90,66,42,30.11,30.01,15,2,15,0.00
2013-7-13,84.7,74.8,63.0,66.4,63.0,59.9,90,68,49,30.08,30.00,15,3,15,0.00
2013-7-14,88.3,76.1,65.6,76.1,69.8,63.1,94,81,60,30.13,30.03,11,2,11,0.13
2013-7-15,88.7,81.0,73.1,77.1,74.0,70.7,96,80,62,30.23,30.13,15,2,15,0.00
2013-7-16,93.5,83.3,71.5,76.1,73.0,69.7,95,73,49,30.29,30.21,10,1,10,0.00
2013-7-17,95.4,84.7,73.2,77.0,73.8,70.2,95,72,47,30.31,30.17,7,0,7,0.00
2013-7-18,97.3,85.1,74.2,78.5,74.6,69.5,94,73,42,30.19,30.02,8,1,8,0.00
2013-7-19,92.6,82.8,72.8,75.8,73.2,70.9,95,74,54,30.02,29.88,12,3,12,0.00
2013-7-20,93.5,82.3,74.1,77.7,73.5,68.8,89,76,58,29.91,29.76,31,4,37,0.62
2013-7-21,83.7,75.3,69.6,75.7,71.8,68.9,98,89,75,29.94,29.84,3,1,10,0.04
2013-7-22,88.8,79.2,71.5,75.8,73.3,70.2,97,83,60,29.85,29.77,4,1,12,0.00
2013-7-23,91.8,81.9,73.4,78.6,74.1,68.5,95,78,59,29.87,29.74,11,2,11,0.00
2013-7-24,79.2,71.8,63.8,68.8,60.3,55.7,85,68,50,30.02,29.86,16,2,16,0.00
2013-7-25,80.5,69.7,58.4,65.3,59.6,55.8,93,72,48,30.11,30.01,12,1,12,0.00
2013-7-26,76.9,69.3,59.0,69.2,64.3,57.5,96,85,64,30.07,29.95,8,1,8,0.02
2013-7-27,76.3,69.7,58.6,68.2,61.0,53.6,96,76,50,29.99,29.93,16,4,16,0.01
2013-7-28,79.6,66.7,52.4,62.6,55.8,51.1,96,71,42,30.05,29.98,11,2,11,0.00
2013-7-29,80.0,70.1,57.9,67.0,62.6,56.1,96,78,56,30.16,30.05,9,1,10,0.00
2013-7-30,71.2,69.2,66.9,69.6,66.3,62.4,97,91,77,30.14,30.01,8,1,8,0.63
2013-7-31,84.1,74.5,68.9,74.8,70.6,66.7,98,88,69,30.02,29.95,18,2,18,0.02
2013-8-1,85.0,74.3,65.5,71.6,66.3,60.7,97,79,46,30.06,29.98,11,2,12,0.00
2013-8-2,84.8,73.5,64.0,72.3,67.6,61.5,96,83,62,30.00,29.92,16,2,16,0.28
2013-8-3,85.5,75.7,69.3,74.8,70.7,64.9,96,85,66,30.08,29.91,11,1,11,0.01
2013-8-4,81.5,72.2,62.7,66.5,62.0,57.1,91,72,47,30.17,30.08,11,2,11,0.00
2013-8-5,74.6,68.4,62.6,66.6,63.9,60.4,94,86,68,30.10,29.91,14,1,14,0.00
2013-8-6,85.0,75.5,68.5,74.4,70.4,66.6,98,85,66,29.94,29.86,13,2,13,0.00
2013-8-7,85.5,75.2,70.4,74.7,71.2,69.0,98,88,66,29.92,29.83,9,1,9,0.00
2013-8-8,83.1,75.0,67.3,76.7,72.2,66.4,98,91,77,29.94,29.86,11,1,11,0.04
2013-8-9,83.3,75.1,70.5,74.2,71.4,68.9,98,89,66,30.04,29.91,9,1,9,0.03
2013-8-10,87.2,76.7,68.7,71.5,68.2,65.2,93,76,51,30.12,30.03,8,1,8,0.00
2013-8-11,86.2,75.0,63.2,71.0,64.7,60.8,94,72,44,30.13,30.03,8,1,8,0.00
2013-8-12,84.3,74.1,68.5,76.4,70.2,64.3,97,88,74,30.07,29.89,13,1,13,1.00
2013-8-13,80.3,71.4,63.3,71.5,66.7,56.8,98,86,65,30.10,29.91,14,2,14,0.01
2013-8-14,73.6,63.8,54.2,56.8,53.7,50.1,90,71,51,30.19,30.10,18,3,18,0.00
2013-8-15,74.1,63.5,54.3,58.9,54.8,51.5,93,75,51,30.16,30.07,12,2,12,0.00
2013-8-16,76.5,66.3,54.1,62.8,58.0,52.4,95,76,55,30.13,30.08,12,2,12,0.00
2013-8-17,77.5,68.5,63.2,67.4,61.7,57.1,91,79,65,30.17,30.09,12,2,12,0.00
2013-8-18,83.1,70.8,65.0,69.6,65.1,62.0,95,83,60,30.15,30.06,13,1,13,0.04
2013-8-19,85.2,73.2,60.8,70.2,66.0,59.8,97,80,56,30.13,30.02,10,1,10,0.00
2013-8-20,89.9,76.1,63.5,72.5,68.1,62.3,97,78,49,30.11,30.02,7,0,7,0.00
2013-8-21,89.3,76.9,64.9,72.2,68.6,63.8,97,78,50,30.13,30.03,9,1,9,0.00
2013-8-22,91.2,79.3,68.1,75.8,71.5,66.9,97,79,53,30.09,29.99,10,1,10,0.00
2013-8-23,88.8,78.7,71.2,74.6,70.9,68.2,95,78,54,30.09,30.01,11,2,11,0.00
2013-8-24,90.0,77.5,67.0,73.9,67.8,63.7,95,74,45,30.20,30.08,11,2,11,0.00
2013-8-25,93.7,77.8,62.6,71.8,66.9,59.9,94,72,41,30.26,30.16,8,0,8,0.00
2013-8-26,92.0,80.2,70.3,77.4,73.0,69.4,97,80,55,30.22,30.07,12,2,12,0.00
2013-8-27,92.4,80.9,72.1,78.8,73.6,70.0,93,80,55,30.08,29.98,8,2,8,0.00
2013-8-28,94.8,81.8,71.1,74.3,70.6,65.2,94,72,42,30.03,29.96,10,2,10,0.00
2013-8-29,95.5,83.3,73.1,76.9,72.5,68.6,90,71,48,30.02,29.92,10,2,10,0.00
2013-8-30,96.2,83.7,72.2,77.8,74.3,70.3,96,75,47,29.95,29.83,11,2,11,0.00
2013-8-31,97.5,85.4,73.6,78.1,75.2,71.5,95,73,46,29.85,29.71,12,3,12,0.00
2013-9-1,91.2,78.9,69.9,77.1,72.9,67.5,95,83,58,29.82,29.73,23,2,23,0.05
2013-9-2,84.8,74.5,66.3,69.3,66.3,61.8,97,78,52,29.93,29.81,14,3,14,0.00
2013-9-3,82.0,69.9,59.7,66.2,61.8,57.8,95,77,49,30.07,29.93,12,1,14,0.00
2013-9-4,84.1,69.7,56.3,65.0,60.1,54.8,96,74,45,30.16,30.07,8,1,10,0.00
2013-9-5,87.0,70.2,57.4,67.3,61.4,55.6,95,77,46,30.20,30.12,10,1,11,0.00
2013-9-6,89.5,74.6,61.1,68.3,64.8,59.3,96,74,44,30.18,30.04,10,1,10,0.00
2013-9-7,90.7,76.5,61.8,71.1,66.5,60.4,97,74,46,30.06,29.92,10,2,11,0.00
2013-9-8,83.4,76.1,70.6,76.0,70.9,66.5,92,84,75,29.98,29.90,10,0,10,0.02
2013-9-9,98.0,82.8,72.3,78.1,73.2,70.4,96,75,42,29.98,29.90,12,1,12,0.00
2013-9-10,96.8,83.1,72.8,77.3,73.8,71.2,96,75,48,30.08,29.97,10,1,10,0.00
2013-9-11,97.3,82.2,70.4,74.6,71.1,65.0,96,73,36,30.13,30.01,8,1,8,0.00
2013-9-12,86.2,76.1,64.7,72.0,66.1,54.4,94,73,46,30.06,29.95,17,2,17,0.00
2013-9-13,76.3,65.0,54.6,57.2,52.0,47.8,92,65,39,30.11,30.01,17,2,17,0.00
2013-9-14,76.3,61.4,47.5,51.6,47.6,42.4,91,64,33,30.17,30.05,10,1,10,0.00
2013-9-15,82.0,66.1,49.5,59.2,52.7,46.1,93,65,36,30.10,30.00,13,2,13,0.00
2013-9-16,74.4,66.2,60.1,63.7,60.5,55.9,94,82,61,30.23,30.06,11,2,14,0.14
2013-9-17,79.5,67.8,56.8,63.8,59.1,54.2,91,75,52,30.23,30.08,13,3,13,0.00
2013-9-18,87.8,74.6,65.0,72.1,67.0,61.0,95,79,52,30.11,29.96,17,2,17,0.04
2013-9-19,90.5,79.1,71.2,74.0,71.3,69.0,94,78,52,30.02,29.88,18,4,18,0.00
2013-9-20,75.3,71.4,63.2,70.8,68.2,59.6,95,90,81,29.92,29.83,16,2,16,0.26
2013-9-21,72.7,61.9,53.1,59.6,52.5,49.3,93,73,45,29.93,29.86,14,4,21,0.00
2013-9-22,75.3,62.0,49.6,55.0,50.6,46.1,94,69,39,30.01,29.93,12,1,12,0.00
2013-9-23,77.7,63.6,51.6,55.8,51.3,48.3,91,67,36,30.05,29.94,16,3,16,0.00
2013-9-24,81.8,66.8,53.7,67.0,59.1,50.3,95,78,49,29.96,29.81,15,2,15,0.00
2013-9-25,84.5,70.9,63.3,67.3,64.1,61.1,97,81,51,29.87,29.79,14,2,14,0.01
2013-9-26,85.3,71.2,61.0,67.2,61.4,57.3,96,74,42,30.02,29.86,12,2,12,0.00
2013-9-27,83.3,68.9,54.7,62.2,56.4,50.2,95,68,36,30.12,30.02,13,1,13,0.00
2013-9-28,84.1,71.4,57.2,64.6,59.2,54.2,92,68,43,30.09,29.98,19,3,24,0.00
2013-9-29,74.9,65.1,57.9,64.1,60.8,56.7,97,87,66,30.04,29.95,10,2,10,0.47
2013-9-30,78.2,67.1,61.7,68.1,63.9,60.3,98,90,66,30.00,29.91,13,1,13,0.01
2013-10-1,78.5,70.2,63.9,70.7,67.0,62.4,97,90,76,30.04,29.96,13,2,13,0.00
2013-10-2,83.1,71.6,67.9,73.0,69.2,66.8,98,93,66,30.08,29.98,16,1,16,0.10
2013-10-3,85.3,74.2,67.2,71.5,68.2,66.2,97,83,57,30.01,29.90,17,2,17,0.03
2013-10-4,86.3,74.8,68.2,73.2,69.2,65.9,97,84,60,30.01,29.92,17,2,17,0.00
2013-10-5,80.0,71.0,60.7,73.4,68.9,58.0,97,93,77,29.97,29.80,16,2,16,1.47
2013-10-6,64.3,56.7,48.3,58.2,47.6,41.3,94,74,49,29.92,29.82,19,4,19,0.00
2013-10-7,67.8,55.5,47.0,50.6,47.5,44.0,94,76,49,30.16,29.90,16,2,16,0.00
2013-10-8,71.9,58.2,45.2,55.0,48.9,44.1,97,74,43,30.23,30.14,15,1,15,0.00
2013-10-9,76.7,60.1,46.5,59.0,52.2,44.8,95,77,49,30.20,30.10,8,1,8,0.00
2013-10-10,79.6,64.7,53.8,65.9,59.1,52.7,97,84,54,30.15,30.02,17,0,17,0.00
2013-10-11,80.7,67.3,57.0,64.5,59.0,55.5,97,77,46,30.05,29.94,16,1,16,0.01
2013-10-12,73.5,63.7,58.2,66.8,60.8,55.8,97,91,79,30.17,29.97,8,1,8,0.09
2013-10-13,74.2,60.9,49.8,55.8,44.7,37.1,92,59,29,30.36,30.17,14,2,14,0.00
2013-10-14,68.8,58.2,48.6,55.4,47.7,38.1,82,68,53,30.33,30.08,11,2,11,0.00
2013-10-15,67.5,64.0,60.2,64.8,61.2,55.4,96,91,82,30.08,29.90,18,3,18,0.30
2013-10-16,62.3,54.8,46.9,56.8,47.0,43.3,89,76,54,30.04,29.95,14,3,14,0.00
2013-10-17,62.6,51.5,44.4,50.6,46.0,42.7,96,83,50,30.01,29.94,12,2,12,0.09
2013-10-18,64.8,52.4,43.7,49.6,45.2,41.4,95,78,52,30.06,29.96,12,2,12,0.02
2013-10-19,57.5,48.0,42.1,45.0,40.1,35.4,95,76,45,30.03,29.95,16,4,16,0.24
2013-10-20,66.8,52.7,40.8,46.1,42.3,38.0,91,70,45,30.02,29.93,22,4,22,0.00
2013-10-21,56.6,49.7,37.8,48.7,43.5,34.8,92,79,68,30.08,29.96,12,2,12,0.00
2013-10-22,58.6,45.2,32.3,47.4,37.9,31.2,97,78,49,30.09,29.82,20,4,23,0.08
2013-10-23,49.3,43.4,39.2,38.0,33.8,27.5,89,70,47,30.15,29.95,21,5,21,0.00
2013-10-24,48.3,40.8,32.2,37.4,30.8,23.4,92,70,42,30.42,30.14,21,4,21,0.00
2013-10-25,53.4,38.0,25.0,32.3,26.9,22.8,94,68,36,30.55,30.28,9,1,9,0.00
2013-10-26,66.8,49.4,34.5,47.6,36.3,28.3,79,61,48,30.28,30.00,19,4,19,0.00
2013-10-27,61.4,44.0,30.5,35.5,32.3,27.5,91,68,32,30.16,30.05,8,1,8,0.00
2013-10-28,68.0,49.5,32.9,45.2,38.0,30.8,94,69,36,30.27,30.08,9,1,9,0.00
2013-10-29,58.0,51.4,46.5,57.1,45.2,37.3,97,80,63,30.29,30.08,7,1,7,0.29
2013-10-30,74.3,66.3,58.1,67.5,62.6,57.1,98,88,71,30.09,29.88,21,4,21,0.08
2013-10-31,66.1,62.0,51.9,64.9,60.4,49.6,97,94,87,29.88,29.38,20,6,25,1.66
2013-11-1,63.2,53.3,45.8,50.1,46.2,42.3,96,78,51,29.86,29.64,17,4,17,0.00
2013-11-2,55.1,47.3,37.7,45.5,40.9,35.3,91,79,57,30.20,29.85,19,4,19,0.00
2013-11-3,59.2,45.4,32.5,41.4,35.6,31.4,97,72,39,30.34,30.19,11,1,11,0.00
2013-11-4,58.6,49.7,44.2,48.4,41.9,36.9,90,74,62,30.29,30.20,17,2,17,0.01
2013-11-5,66.0,56.9,50.3,52.9,49.5,47.3,95,77,58,30.32,30.08,14,2,14,0.04
2013-11-6,61.3,51.2,39.2,54.8,47.7,35.9,94,88,73,30.25,29.97,22,6,22,0.33
2013-11-7,53.8,41.1,31.3,39.2,35.0,29.5,96,81,54,30.41,30.25,12,2,12,0.01
2013-11-8,58.0,43.6,29.0,38.1,32.9,28.0,97,69,38,30.41,30.16,9,1,14,0.00
2013-11-9,66.3,52.5,40.7,45.6,41.2,34.6,88,67,42,30.22,30.10,19,4,19,0.00
2013-11-10,55.1,45.4,35.3,43.7,35.3,31.2,87,69,44,30.42,30.22,15,2,15,0.00
2013-11-11,62.8,47.1,35.7,49.1,36.9,31.9,91,70,42,30.43,30.14,24,4,24,0.02
2013-11-12,36.0,29.6,20.7,33.4,22.7,18.3,91,76,55,30.74,30.43,22,5,22,0.00
2013-11-13,43.9,30.4,18.0,24.1,20.0,14.9,93,69,33,30.74,30.39,15,3,15,0.00
2013-11-14,53.7,41.4,29.9,28.6,25.7,22.2,77,56,32,30.39,30.12,23,6,23,0.00
2013-11-15,54.2,47.3,40.7,45.8,35.3,26.7,89,64,47,30.13,30.00,12,3,12,0.00
2013-11-16,65.9,57.6,47.8,63.0,54.2,45.2,94,89,77,30.00,29.71,21,6,27,0.06
2013-11-17,76.0,65.1,47.8,68.0,52.9,28.5,93,69,26,29.97,29.44,37,10,37,0.23
2013-11-18,54.9,46.8,34.3,42.4,35.0,27.6,90,65,38,30.31,29.97,23,4,23,0.00
2013-11-19,46.3,38.1,32.3,30.9,28.6,26.8,82,69,50,30.38,30.25,9,2,9,0.00
2013-11-20,52.7,42.6,31.0,38.5,33.4,27.8,88,71,55,30.26,30.10,14,2,14,0.00
2013-11-21,52.4,50.5,47.3,50.8,46.1,37.6,97,86,57,30.20,30.11,14,2,14,0.73
2013-11-22,51.5,42.9,36.2,50.7,40.7,32.3,97,92,85,30.50,30.18,21,8,21,0.01
2013-11-23,36.3,29.7,20.4,33.0,22.3,12.9,91,74,51,30.73,30.49,26,9,26,0.00
2013-11-24,30.5,23.0,16.5,16.9,12.8,8.5,82,66,42,30.80,30.50,11,2,11,0.00
2013-11-25,34.5,31.2,26.5,26.6,21.3,15.6,78,67,55,30.51,30.21,13,2,13,0.00
2013-11-26,40.9,33.3,23.6,30.9,25.1,12.2,89,72,57,30.24,30.05,29,8,29,0.00
2013-11-27,28.1,21.9,17.9,14.9,10.8,6.5,85,63,46,30.39,30.22,25,8,25,0.00
2013-11-28,46.4,30.0,19.1,26.4,20.0,12.8,85,67,43,30.52,30.31,22,4,22,0.00
2013-11-29,47.8,34.8,24.8,29.1,24.9,19.6,86,68,47,30.63,30.43,7,2,11,0.00
2013-11-30,54.7,42.1,31.7,36.3,31.9,25.9,79,68,46,30.43,30.15,14,4,18,0.00
2013-12-1,58.4,45.9,38.3,44.8,39.2,33.4,93,78,59,30.16,29.93,6,1,6,0.00
2013-12-2,58.5,47.3,37.8,49.5,42.8,35.1,94,85,71,29.93,29.72,6,1,9,0.00
2013-12-3,59.1,51.3,44.4,53.0,48.5,42.9,97,91,79,29.76,29.68,13,2,13,0.00
2013-12-4,67.6,58.0,47.9,59.6,54.5,44.6,98,88,74,29.83,29.56,30,7,30,0.01
2013-12-5,48.8,30.7,22.2,44.3,27.3,20.4,93,87,79,30.30,29.83,22,7,22,0.00
2013-12-6,22.3,20.4,17.3,20.6,17.8,10.7,93,90,75,30.59,30.27,18,6,18,0.00
2013-12-7,20.1,13.7,5.6,13.4,7.8,2.0,87,77,68,30.74,30.49,11,4,13,0.00
2013-12-8,27.7,24.5,20.2,26.4,21.1,13.1,95,87,74,30.49,30.05,17,4,17,0.00
2013-12-9,28.0,24.9,20.9,25.3,19.4,15.0,92,80,64,30.34,30.13,19,3,19,0.00
2013-12-10,33.1,21.9,10.7,20.7,16.3,8.2,93,80,57,30.39,30.29,16,3,16,0.00
2013-12-11,32.4,20.7,8.1,24.5,15.4,0.7,94,80,64,30.70,30.36,20,4,25,0.00
2013-12-12,27.6,15.0,0.1,14.0,7.0,-3.2,89,71,51,30.70,30.36,12,3,12,0.00
2013-12-13,36.5,28.1,18.5,31.7,23.7,13.8,95,84,66,30.36,30.02,21,3,21,0.01
2013-12-14,34.9,32.8,27.8,33.2,31.0,24.5,96,93,86,30.14,29.85,25,7,25,0.12
2013-12-15,32.0,27.8,24.2,28.9,24.2,20.0,93,86,78,30.25,30.09,15,4,16,0.00
2013-12-16,45.4,35.6,29.8,34.4,31.1,26.6,92,84,64,30.13,30.04,14,3,14,0.01
2013-12-17,40.2,30.8,25.3,32.2,26.5,22.3,95,85,71,30.31,30.12,16,3,16,0.00
2013-12-18,45.0,35.1,22.7,36.0,26.5,19.1,89,72,48,30.32,30.02,18,5,18,0.00
2013-12-19,55.6,48.8,40.1,50.9,43.6,34.9,86,82,75,30.03,29.86,24,8,24,0.00
2013-12-20,63.2,56.1,41.2,60.1,52.8,39.3,95,89,83,29.87,29.76,28,11,28,0.25
2013-12-21,41.4,36.9,34.9,39.9,35.7,33.6,96,95,94,29.84,29.47,22,4,22,2.67
2013-12-22,39.6,35.4,30.8,37.0,32.6,27.5,97,90,80,30.26,29.65,19,5,19,0.00
2013-12-23,30.8,25.2,16.8,27.5,19.8,10.2,88,80,72,30.59,30.26,21,7,21,0.00
2013-12-24,24.4,16.9,9.4,13.6,7.2,-0.3,83,66,45,30.68,30.44,13,4,16,0.00
2013-12-25,36.7,29.0,19.4,30.0,22.9,13.4,90,78,68,30.45,30.29,14,3,14,0.00
2013-12-26,45.3,34.0,23.8,31.7,27.8,22.0,95,79,51,30.45,30.33,11,3,11,0.00
2013-12-27,51.0,38.7,29.0,37.7,32.1,25.8,89,78,57,30.43,30.30,12,3,12,0.00
2013-12-28,49.1,40.7,32.5,38.2,34.0,30.3,93,78,62,30.31,29.96,13,3,13,0.00
2013-12-29,41.6,31.7,20.0,35.2,27.1,14.8,91,83,75,30.27,29.89,25,7,25,0.00
2013-12-30,27.0,19.8,12.8,17.5,11.1,7.1,81,69,51,30.39,30.27,15,4,17,0.00
2013-12-31,40.2,31.2,22.1,28.8,22.2,16.4,82,69,54,30.47,30.26,17,4,17,0.00
2014-1-1,43.4,37.0,30.6,33.8,30.8,27.3,93,78,64,30.27,29.99,16,4,16,0.03
2014-1-2,32.2,19.3,10.6,30.1,14.7,6.4,94,82,70,30.51,29.99,28,12,28,0.00